• Join FlightAware (Why Join?)
  • Login
  • US Flag 
03:54PM EDT


 

Airport Tracker/Info


-or-


 

Live Flight TrackerFlight Track Log ✈ SKW5207 ✈ 10-May-2012 ✈ KIAH - KOMA

Flight Track Log - Related Links

Times and Time Zones

All times are in EDT time to prevent confusion due to time zone crossing. See the SKW5207 flight status page for this flight to view local times or setup timezone preferences in your user account.

Time Position Orientation Groundspeed Altitude Reporting Facility
EDT Latitude Longitude Course Direction KTS MPH feet Rate Location/Type
07:37PM 29.9758 -95.3031 North 183 211 600  Level Houston Center
07:38PM 30.0556 -95.2939 339° North 287 330 3,300 2,280 Climbing Houston Center
07:39PM 30.1278 -95.3253 328° Northwest 284 327 6,200 2,760 Climbing Houston Center
07:40PM 30.2033 -95.3808 325° Northwest 304 350 9,000 2,400 Climbing Houston Center
07:42PM 30.3033 -95.4614 324° Northwest 340 391 12,400 1,920 Climbing Houston Center
07:43PM 30.3831 -95.5294 325° Northwest 346 398 13,900 1,740 Climbing Houston Center
07:44PM 30.4686 -95.5978 326° Northwest 359 413 15,900 2,160 Climbing Houston Center
07:45PM 30.5564 -95.6661 335° Northwest 371 427 18,300 2,400 Climbing Houston Center
07:46PM 30.6528 -95.7183 336° Northwest 377 434 20,800 1,920 Climbing Houston Center
07:47PM 30.7597 -95.7733 335° Northwest 377 434 22,200 1,380 Climbing Houston Center
07:48PM 30.8603 -95.8283 336° Northwest 383 441 23,600 1,320 Climbing Houston Center
07:49PM 30.9647 -95.8833 335° Northwest 395 455 24,900 1,080 Climbing Houston Center
07:50PM 31.0417 -95.9247 340° North 415 478 25,700 1,080 Climbing Fort Worth Center
07:51PM 31.1758 -95.9808 349° North 431 496 27,100 1,080 Climbing Fort Worth Center
07:52PM 31.2931 -96.0083 North 426 490 27,900 1,140 Climbing Fort Worth Center
07:53PM 31.4161 -95.9967 North 432 497 29,400 1,380 Climbing Fort Worth Center
07:54PM 31.5372 -95.9800 North 437 503 30,700 960 Climbing Fort Worth Center
07:55PM 31.6581 -95.9589 359° North 438 504 31,400 720 Climbing Fort Worth Center
07:56PM 31.7853 -95.9617 352° North 450 518 32,200 780 Climbing Fort Worth Center
07:57PM 31.8961 -95.9794 352° North 443 510 33,000 900 Climbing Fort Worth Center
07:58PM 32.0197 -95.9994 354° North 443 510 34,100 960 Climbing Fort Worth Center
07:59PM 32.1450 -96.0147 351° North 450 518 35,000 840 Climbing Fort Worth Center
08:00PM 32.2664 -96.0375 353° North 450 518 35,800 900 Climbing Fort Worth Center
08:01PM 32.3772 -96.0531 357° North 445 512 36,900 600 Climbing Fort Worth Center
08:02PM 32.5256 -96.0631 359° North 445 512 37,000  Climbing Fort Worth Center
08:03PM 32.6550 -96.0661 359° North 453 521 37,000  Level Fort Worth Center
08:04PM 32.7867 -96.0692 360° North 460 529 37,000  Level Fort Worth Center
08:05PM 32.9119 -96.0697 359° North 451 519 37,000  Level Fort Worth Center
08:06PM 33.0392 -96.0728 359° North 451 519 37,000  Level Fort Worth Center
08:07PM 33.1667 -96.0758 359° North 457 526 37,000  Level Fort Worth Center
08:08PM 33.2939 -96.0789 360° North 457 526 37,000  Level Fort Worth Center
08:09PM 33.4192 -96.0794 359° North 450 518 37,000  Level Fort Worth Center
08:10PM 33.5464 -96.0825 358° North 450 518 37,000  Level Fort Worth Center
08:11PM 33.6717 -96.0881 North 450 518 37,000  Level Fort Worth Center
08:12PM 33.7992 -96.0861 359° North 450 518 37,000  Level Fort Worth Center
08:13PM 33.9286 -96.0892 359° North 455 524 37,000  Level Fort Worth Center
08:14PM 34.0536 -96.0925 357° North 460 529 37,000  Level Fort Worth Center
08:15PM 34.1603 -96.0983 360° North 450 518 37,000  Level Fort Worth Center
08:16PM 34.2897 -96.0989 360° North 443 510 37,000  Level Fort Worth Center
08:17PM 34.4169 -96.0994 360° North 448 516 37,000  Level Fort Worth Center
08:18PM 34.5419 -96.1000 359° North 448 516 37,000  Level Fort Worth Center
08:19PM 34.6778 -96.1031 359° North 448 516 37,000  Level Fort Worth Center
08:20PM 34.8258 -96.1058 360° North 443 510 37,000  Level Fort Worth Center
08:21PM 34.9489 -96.1064 359° North 443 510 37,000  Level Fort Worth Center
08:22PM 35.0719 -96.1097 359° North 438 504 37,000  Level Fort Worth Center
08:23PM 35.1972 -96.1128 360° North 443 510 37,000  Level Fort Worth Center
08:24PM 35.3225 -96.1133 359° North 443 510 37,000  Level Fort Worth Center
08:25PM 35.5283 -96.1164 360° North 434 499 37,000  Level Kansas City Center
08:26PM 35.6556 -96.1164 358° North 440 506 37,000  Level Kansas City Center
08:27PM 35.7847 -96.1217 358° North 446 513 37,000  Level Kansas City Center
08:28PM 35.8975 -96.1267 359° North 451 519 37,000  Level Kansas City Center
08:29PM 36.0267 -96.1292 359° North 451 519 37,000  Level Kansas City Center
08:30PM 36.1539 -96.1319 359° North 456 525 37,000  Level Kansas City Center
08:31PM 36.2792 -96.1344 North 456 525 37,000  Level Kansas City Center
08:32PM 36.4042 -96.1319 358° North 456 525 37,000  Level Kansas City Center
08:33PM 36.5294 -96.1372 360° North 451 519 37,000  Level Kansas City Center
08:34PM 36.6506 -96.1369 359° North 445 512 37,000  Level Kansas City Center
08:35PM 36.7694 -96.1394 359° North 434 499 37,000  Level Kansas City Center
08:36PM 36.8903 -96.1422 359° North 434 499 37,000  Level Kansas City Center
08:37PM 37.0111 -96.1447 360° North 429 494 37,000  Level Kansas City Center
08:38PM 37.1322 -96.1447 359° North 429 494 37,000  Level Kansas City Center
08:39PM 37.2553 -96.1472 359° North 429 494 37,000  Level Kansas City Center
08:40PM 37.3783 -96.1500 360° North 435 501 37,000  Level Kansas City Center
08:41PM 37.5097 -96.1503 359° North 435 501 37,000  Level Kansas City Center
08:42PM 37.6328 -96.1528 358° North 440 506 37,000  Level Kansas City Center
08:43PM 37.7411 -96.1578 359° North 434 499 37,000  Level Kansas City Center
08:44PM 37.8578 -96.1606 359° North 428 493 37,000 -300 Level Kansas City Center
08:45PM 37.9747 -96.1631 360° North 423 487 36,500 -540 Descending Kansas City Center
08:46PM 38.1019 -96.1631 358° North 429 494 36,000 -300 Descending Kansas City Center
08:47PM 38.2228 -96.1686 360° North 434 499 36,000  Level Kansas City Center
08:48PM 38.3519 -96.1686 359° North 434 499 36,000  Level Kansas City Center
08:49PM 38.4689 -96.1714 359° North 422 486 36,000  Level Kansas City Center
08:50PM 38.5856 -96.1739 359° North 417 480 36,000  Level Kansas City Center
08:51PM 38.6919 -96.1764 359° North 423 487 36,000  Level Kansas City Center
08:52PM 38.8086 -96.1792 360° North 423 487 36,000  Level Kansas City Center
08:53PM 38.9400 -96.1794 359° North 423 487 36,000 -360 Level Kansas City Center
08:54PM 39.0650 -96.1822 359° North 423 487 35,300 -720 Descending Kansas City Center
08:55PM 39.1753 -96.1847 360° North 442 509 34,600 -660 Descending Kansas City Center
08:56PM 39.3025 -96.1850 359° North 442 509 34,000 -720 Descending Kansas City Center
08:57PM 39.4400 -96.1883 358° North 442 509 33,200 -1,080 Descending Kansas City Center
08:59PM 39.6636 -96.1969 359° North 441 507 31,000 -1,320 Descending Minneapolis Center
09:00PM 39.7883 -96.1997 360° North 441 507 29,500 -3,540 Descending Minneapolis Center
09:01PM 39.9153 -96.1997 359° North 441 507 24,000 -1,620 Descending Minneapolis Center
09:02PM 40.0419 -96.2025 359° North 447 514 26,300  Climbing Minneapolis Center
09:03PM 40.1686 -96.2053 North 447 514 24,000 -2,280 Descending Minneapolis Center
09:04PM 40.2936 -96.1944 13° North 447 514 21,800 -2,400 Descending Minneapolis Center
09:05PM 40.3797 -96.1681 North 438 504 20,100 -2,460 Descending Minneapolis Center
09:06PM 40.5319 -96.1447 North 420 483 17,000 -2,100 Descending Minneapolis Center
09:07PM 40.6447 -96.1358 North 387 445 15,200 -1,800 Descending Minneapolis Center
09:08PM 40.7344 -96.1233 North 347 399 13,600 -1,740 Descending Minneapolis Center
09:09PM 40.8200 -96.1106 North 320 368 11,900 -1,620 Descending Minneapolis Center
09:10PM 40.8950 -96.1028 North 300 345 10,500 -1,740 Descending Minneapolis Center
09:11PM 40.9869 -96.0903 North 285 328 8,400 -2,100 Descending Minneapolis Center
09:12PM 41.0703 -96.0828 North 294 338 6,100 -1,680 Descending Minneapolis Center
09:13PM 41.1497 -96.0697 North 295 339 5,000 -840 Descending Minneapolis Center
09:14PM 41.2289 -96.0592 North 295 339 4,400 -780 Descending Minneapolis Center
09:15PM 41.3103 -96.0517 North 295 339 3,500 -600 Descending Minneapolis Center
09:16PM 41.3939 -96.0386 114° Southeast 290 334 3,300 -720 Descending Minneapolis Center
09:17PM 41.3647 -95.9517 149° Southeast 129 148 2,100 -960 Descending Minneapolis Center
09:18PM 41.3319 -95.9256 142° Southeast 88 101 1,400 -600 Descending Minneapolis Center
09:19PM 41.3097 -95.9025 142° Southeast 88 101 900 -540 Descending Minneapolis Center